sensor_id;sensor_type;location;lat;lon;timestamp;P1;durP1;ratioP1;P2;durP2;ratioP2
53062;SDS011;40529;52.172;10.548;2022-08-19T00:00:16;12.70;;;8.88;;
53062;SDS011;40529;52.172;10.548;2022-08-19T00:02:43;15.57;;;10.10;;
53062;SDS011;40529;52.172;10.548;2022-08-19T00:05:10;13.52;;;9.75;;
53062;SDS011;40529;52.172;10.548;2022-08-19T00:07:37;11.88;;;9.73;;
53062;SDS011;40529;52.172;10.548;2022-08-19T00:10:06;16.25;;;9.93;;
53062;SDS011;40529;52.172;10.548;2022-08-19T00:12:33;13.55;;;9.73;;
53062;SDS011;40529;52.172;10.548;2022-08-19T00:15:00;12.77;;;10.52;;
53062;SDS011;40529;52.172;10.548;2022-08-19T00:17:26;12.50;;;9.90;;
53062;SDS011;40529;52.172;10.548;2022-08-19T00:19:52;10.77;;;9.63;;
53062;SDS011;40529;52.172;10.548;2022-08-19T00:22:18;13.00;;;9.32;;
53062;SDS011;40529;52.172;10.548;2022-08-19T00:24:44;15.68;;;9.82;;
53062;SDS011;40529;52.172;10.548;2022-08-19T00:27:11;13.95;;;9.70;;
53062;SDS011;40529;52.172;10.548;2022-08-19T00:29:38;15.82;;;10.13;;
53062;SDS011;40529;52.172;10.548;2022-08-19T00:32:04;14.10;;;10.10;;
53062;SDS011;40529;52.172;10.548;2022-08-19T00:34:30;15.98;;;10.15;;
53062;SDS011;40529;52.172;10.548;2022-08-19T00:36:56;12.02;;;10.43;;
53062;SDS011;40529;52.172;10.548;2022-08-19T00:39:22;12.23;;;10.38;;
53062;SDS011;40529;52.172;10.548;2022-08-19T00:41:49;13.52;;;10.63;;
53062;SDS011;40529;52.172;10.548;2022-08-19T00:44:17;16.27;;;10.25;;
53062;SDS011;40529;52.172;10.548;2022-08-19T00:46:45;14.38;;;10.35;;
53062;SDS011;40529;52.172;10.548;2022-08-19T00:52:00;14.18;;;9.68;;
53062;SDS011;40529;52.172;10.548;2022-08-19T00:54:27;11.40;;;9.88;;
53062;SDS011;40529;52.172;10.548;2022-08-19T00:56:54;14.35;;;9.88;;
53062;SDS011;40529;52.172;10.548;2022-08-19T00:59:20;12.40;;;9.50;;
53062;SDS011;40529;52.172;10.548;2022-08-19T01:01:47;12.48;;;9.65;;
53062;SDS011;40529;52.172;10.548;2022-08-19T01:04:13;13.05;;;9.50;;
53062;SDS011;40529;52.172;10.548;2022-08-19T01:06:39;13.80;;;9.20;;
53062;SDS011;40529;52.172;10.548;2022-08-19T01:09:06;12.88;;;8.98;;
53062;SDS011;40529;52.172;10.548;2022-08-19T01:11:33;10.70;;;8.73;;
53062;SDS011;40529;52.172;10.548;2022-08-19T01:14:00;11.15;;;9.35;;
53062;SDS011;40529;52.172;10.548;2022-08-19T01:16:27;10.85;;;9.23;;
53062;SDS011;40529;52.172;10.548;2022-08-19T01:18:54;11.90;;;9.07;;
53062;SDS011;40529;52.172;10.548;2022-08-19T01:23:53;9.88;;;8.88;;
53062;SDS011;40529;52.172;10.548;2022-08-19T01:26:20;13.00;;;8.98;;
53062;SDS011;40529;52.172;10.548;2022-08-19T01:28:48;14.07;;;8.93;;
53062;SDS011;40529;52.172;10.548;2022-08-19T01:31:19;12.88;;;9.25;;
53062;SDS011;40529;52.172;10.548;2022-08-19T01:33:46;13.88;;;9.20;;
53062;SDS011;40529;52.172;10.548;2022-08-19T01:36:14;11.90;;;9.35;;
53062;SDS011;40529;52.172;10.548;2022-08-19T01:38:41;10.88;;;8.82;;
53062;SDS011;40529;52.172;10.548;2022-08-19T01:41:08;12.23;;;8.95;;
53062;SDS011;40529;52.172;10.548;2022-08-19T01:43:35;15.38;;;9.40;;
53062;SDS011;40529;52.172;10.548;2022-08-19T01:46:01;11.70;;;9.77;;
53062;SDS011;40529;52.172;10.548;2022-08-19T01:48:32;10.55;;;9.38;;
53062;SDS011;40529;52.172;10.548;2022-08-19T01:50:58;12.65;;;9.32;;
53062;SDS011;40529;52.172;10.548;2022-08-19T01:53:24;16.02;;;9.75;;
53062;SDS011;40529;52.172;10.548;2022-08-19T01:55:50;14.82;;;10.70;;
53062;SDS011;40529;52.172;10.548;2022-08-19T01:58:18;15.98;;;10.10;;
53062;SDS011;40529;52.172;10.548;2022-08-19T02:00:45;16.42;;;9.63;;
53062;SDS011;40529;52.172;10.548;2022-08-19T02:03:11;14.68;;;9.48;;
53062;SDS011;40529;52.172;10.548;2022-08-19T02:05:38;16.75;;;10.02;;
53062;SDS011;40529;52.172;10.548;2022-08-19T02:08:04;12.20;;;9.30;;
53062;SDS011;40529;52.172;10.548;2022-08-19T02:10:30;13.32;;;9.63;;
53062;SDS011;40529;52.172;10.548;2022-08-19T02:12:57;15.27;;;10.13;;
53062;SDS011;40529;52.172;10.548;2022-08-19T02:15:23;12.88;;;9.90;;
53062;SDS011;40529;52.172;10.548;2022-08-19T02:17:50;12.82;;;9.43;;
53062;SDS011;40529;52.172;10.548;2022-08-19T02:20:17;13.25;;;9.48;;
53062;SDS011;40529;52.172;10.548;2022-08-19T02:22:43;11.90;;;9.25;;
53062;SDS011;40529;52.172;10.548;2022-08-19T02:25:10;15.95;;;10.23;;
53062;SDS011;40529;52.172;10.548;2022-08-19T02:27:37;16.23;;;9.85;;
53062;SDS011;40529;52.172;10.548;2022-08-19T02:30:09;14.25;;;9.25;;
53062;SDS011;40529;52.172;10.548;2022-08-19T02:32:36;15.35;;;8.98;;
53062;SDS011;40529;52.172;10.548;2022-08-19T02:35:02;14.55;;;9.07;;
53062;SDS011;40529;52.172;10.548;2022-08-19T02:37:29;12.65;;;9.18;;
53062;SDS011;40529;52.172;10.548;2022-08-19T02:40:13;15.38;;;10.18;;
53062;SDS011;40529;52.172;10.548;2022-08-19T02:42:40;13.00;;;9.45;;
53062;SDS011;40529;52.172;10.548;2022-08-19T02:45:07;16.40;;;10.02;;
53062;SDS011;40529;52.172;10.548;2022-08-19T02:47:34;16.52;;;10.30;;
53062;SDS011;40529;52.172;10.548;2022-08-19T02:50:00;11.40;;;9.48;;
53062;SDS011;40529;52.172;10.548;2022-08-19T02:52:27;11.68;;;9.50;;
53062;SDS011;40529;52.172;10.548;2022-08-19T02:54:53;15.20;;;9.98;;
53062;SDS011;40529;52.172;10.548;2022-08-19T02:57:22;14.38;;;9.80;;
53062;SDS011;40529;52.172;10.548;2022-08-19T02:59:48;14.43;;;9.88;;
53062;SDS011;40529;52.172;10.548;2022-08-19T03:02:14;13.57;;;10.18;;
53062;SDS011;40529;52.172;10.548;2022-08-19T03:04:41;13.32;;;9.85;;
53062;SDS011;40529;52.172;10.548;2022-08-19T03:07:07;12.35;;;10.07;;
53062;SDS011;40529;52.172;10.548;2022-08-19T03:09:33;13.88;;;10.35;;
53062;SDS011;40529;52.172;10.548;2022-08-19T03:12:02;13.80;;;9.98;;
53062;SDS011;40529;52.172;10.548;2022-08-19T03:14:30;13.50;;;10.63;;
53062;SDS011;40529;52.172;10.548;2022-08-19T03:16:56;14.05;;;10.73;;
53062;SDS011;40529;52.172;10.548;2022-08-19T03:19:22;18.50;;;11.05;;
53062;SDS011;40529;52.172;10.548;2022-08-19T03:21:49;13.73;;;11.15;;
53062;SDS011;40529;52.172;10.548;2022-08-19T03:24:15;15.70;;;11.15;;
53062;SDS011;40529;52.172;10.548;2022-08-19T03:26:46;13.32;;;10.20;;
53062;SDS011;40529;52.172;10.548;2022-08-19T03:29:13;17.02;;;10.48;;
53062;SDS011;40529;52.172;10.548;2022-08-19T03:31:40;15.40;;;10.40;;
53062;SDS011;40529;52.172;10.548;2022-08-19T03:34:08;18.15;;;10.90;;
53062;SDS011;40529;52.172;10.548;2022-08-19T03:36:34;16.48;;;11.90;;
53062;SDS011;40529;52.172;10.548;2022-08-19T03:39:01;14.68;;;11.10;;
53062;SDS011;40529;52.172;10.548;2022-08-19T03:41:28;15.20;;;11.10;;
53062;SDS011;40529;52.172;10.548;2022-08-19T03:43:55;15.85;;;10.73;;
53062;SDS011;40529;52.172;10.548;2022-08-19T03:46:23;14.35;;;10.27;;
53062;SDS011;40529;52.172;10.548;2022-08-19T03:48:51;17.83;;;11.60;;
53062;SDS011;40529;52.172;10.548;2022-08-19T03:53:48;13.02;;;8.15;;
53062;SDS011;40529;52.172;10.548;2022-08-19T03:56:14;16.10;;;11.65;;
53062;SDS011;40529;52.172;10.548;2022-08-19T03:58:41;16.00;;;10.73;;
53062;SDS011;40529;52.172;10.548;2022-08-19T04:01:08;18.27;;;11.23;;
53062;SDS011;40529;52.172;10.548;2022-08-19T04:03:34;15.18;;;11.05;;
53062;SDS011;40529;52.172;10.548;2022-08-19T04:06:11;10.25;;;6.95;;
53062;SDS011;40529;52.172;10.548;2022-08-19T04:08:38;15.32;;;10.25;;
53062;SDS011;40529;52.172;10.548;2022-08-19T04:11:06;15.02;;;10.57;;
53062;SDS011;40529;52.172;10.548;2022-08-19T04:13:32;14.93;;;10.75;;
53062;SDS011;40529;52.172;10.548;2022-08-19T04:15:59;16.67;;;10.55;;
53062;SDS011;40529;52.172;10.548;2022-08-19T04:18:25;16.05;;;10.73;;
53062;SDS011;40529;52.172;10.548;2022-08-19T04:20:51;15.35;;;10.35;;
53062;SDS011;40529;52.172;10.548;2022-08-19T04:23:17;15.73;;;10.32;;
53062;SDS011;40529;52.172;10.548;2022-08-19T04:25:43;16.98;;;10.80;;
53062;SDS011;40529;52.172;10.548;2022-08-19T04:28:10;13.07;;;9.18;;
53062;SDS011;40529;52.172;10.548;2022-08-19T04:30:38;19.20;;;10.32;;
53062;SDS011;40529;52.172;10.548;2022-08-19T04:33:04;15.68;;;10.25;;
53062;SDS011;40529;52.172;10.548;2022-08-19T04:35:35;14.00;;;10.32;;
53062;SDS011;40529;52.172;10.548;2022-08-19T04:38:01;15.80;;;10.57;;
53062;SDS011;40529;52.172;10.548;2022-08-19T04:40:27;15.80;;;10.25;;
53062;SDS011;40529;52.172;10.548;2022-08-19T04:43:12;16.73;;;10.55;;
53062;SDS011;40529;52.172;10.548;2022-08-19T04:45:39;18.08;;;11.75;;
53062;SDS011;40529;52.172;10.548;2022-08-19T04:48:05;15.68;;;11.55;;
53062;SDS011;40529;52.172;10.548;2022-08-19T04:50:31;16.45;;;10.95;;
53062;SDS011;40529;52.172;10.548;2022-08-19T04:52:58;13.55;;;11.80;;
53062;SDS011;40529;52.172;10.548;2022-08-19T04:55:24;15.20;;;11.77;;
53062;SDS011;40529;52.172;10.548;2022-08-19T04:57:50;20.48;;;11.85;;
53062;SDS011;40529;52.172;10.548;2022-08-19T05:00:17;13.73;;;11.68;;
53062;SDS011;40529;52.172;10.548;2022-08-19T05:02:43;18.02;;;11.88;;
53062;SDS011;40529;52.172;10.548;2022-08-19T05:05:09;18.67;;;11.50;;
53062;SDS011;40529;52.172;10.548;2022-08-19T05:07:35;19.45;;;11.88;;
53062;SDS011;40529;52.172;10.548;2022-08-19T05:10:02;13.93;;;11.20;;
53062;SDS011;40529;52.172;10.548;2022-08-19T05:12:29;14.07;;;10.75;;
53062;SDS011;40529;52.172;10.548;2022-08-19T05:14:55;15.13;;;10.93;;
53062;SDS011;40529;52.172;10.548;2022-08-19T05:17:22;21.73;;;10.85;;
53062;SDS011;40529;52.172;10.548;2022-08-19T05:19:48;13.77;;;10.07;;
53062;SDS011;40529;52.172;10.548;2022-08-19T05:22:32;15.00;;;10.13;;
53062;SDS011;40529;52.172;10.548;2022-08-19T05:25:11;13.70;;;10.23;;
53062;SDS011;40529;52.172;10.548;2022-08-19T05:27:37;17.17;;;10.82;;
53062;SDS011;40529;52.172;10.548;2022-08-19T05:30:04;15.98;;;11.43;;
53062;SDS011;40529;52.172;10.548;2022-08-19T05:32:30;12.00;;;9.88;;
53062;SDS011;40529;52.172;10.548;2022-08-19T05:34:56;15.48;;;10.80;;
53062;SDS011;40529;52.172;10.548;2022-08-19T05:37:23;13.77;;;9.75;;
53062;SDS011;40529;52.172;10.548;2022-08-19T05:39:51;13.15;;;9.13;;
53062;SDS011;40529;52.172;10.548;2022-08-19T05:42:17;13.98;;;9.73;;
53062;SDS011;40529;52.172;10.548;2022-08-19T05:44:45;16.05;;;9.95;;
53062;SDS011;40529;52.172;10.548;2022-08-19T05:47:13;12.95;;;8.82;;
53062;SDS011;40529;52.172;10.548;2022-08-19T05:49:39;16.55;;;9.63;;
53062;SDS011;40529;52.172;10.548;2022-08-19T05:52:07;14.23;;;9.82;;
53062;SDS011;40529;52.172;10.548;2022-08-19T05:54:34;12.88;;;10.40;;
53062;SDS011;40529;52.172;10.548;2022-08-19T05:57:01;14.20;;;10.52;;
53062;SDS011;40529;52.172;10.548;2022-08-19T05:59:27;16.85;;;10.05;;
53062;SDS011;40529;52.172;10.548;2022-08-19T06:01:53;12.23;;;9.93;;
53062;SDS011;40529;52.172;10.548;2022-08-19T06:04:20;14.32;;;10.57;;
53062;SDS011;40529;52.172;10.548;2022-08-19T06:06:47;14.05;;;10.80;;
53062;SDS011;40529;52.172;10.548;2022-08-19T06:09:14;16.25;;;10.90;;
53062;SDS011;40529;52.172;10.548;2022-08-19T06:11:41;14.75;;;10.95;;
53062;SDS011;40529;52.172;10.548;2022-08-19T06:14:12;14.68;;;10.68;;
53062;SDS011;40529;52.172;10.548;2022-08-19T06:16:40;15.10;;;10.60;;
53062;SDS011;40529;52.172;10.548;2022-08-19T06:19:08;16.98;;;10.23;;
53062;SDS011;40529;52.172;10.548;2022-08-19T06:21:35;17.50;;;10.75;;
53062;SDS011;40529;52.172;10.548;2022-08-19T06:24:02;12.93;;;10.02;;
53062;SDS011;40529;52.172;10.548;2022-08-19T06:26:29;12.63;;;9.65;;
53062;SDS011;40529;52.172;10.548;2022-08-19T06:28:55;13.40;;;9.75;;
53062;SDS011;40529;52.172;10.548;2022-08-19T06:31:23;14.75;;;9.10;;
53062;SDS011;40529;52.172;10.548;2022-08-19T06:33:49;12.88;;;9.75;;
53062;SDS011;40529;52.172;10.548;2022-08-19T06:36:23;14.18;;;9.55;;
53062;SDS011;40529;52.172;10.548;2022-08-19T06:38:56;15.15;;;8.82;;
53062;SDS011;40529;52.172;10.548;2022-08-19T06:41:23;14.82;;;8.85;;
53062;SDS011;40529;52.172;10.548;2022-08-19T06:43:49;16.20;;;9.13;;
53062;SDS011;40529;52.172;10.548;2022-08-19T06:46:15;10.65;;;8.20;;
53062;SDS011;40529;52.172;10.548;2022-08-19T06:48:43;11.88;;;8.75;;
53062;SDS011;40529;52.172;10.548;2022-08-19T06:51:09;13.27;;;8.55;;
53062;SDS011;40529;52.172;10.548;2022-08-19T06:53:35;12.68;;;8.25;;
53062;SDS011;40529;52.172;10.548;2022-08-19T06:56:02;12.25;;;8.05;;
53062;SDS011;40529;52.172;10.548;2022-08-19T06:58:31;9.90;;;7.30;;
53062;SDS011;40529;52.172;10.548;2022-08-19T07:01:06;13.23;;;8.23;;
53062;SDS011;40529;52.172;10.548;2022-08-19T07:03:33;16.60;;;7.90;;
53062;SDS011;40529;52.172;10.548;2022-08-19T07:06:06;9.20;;;6.70;;
53062;SDS011;40529;52.172;10.548;2022-08-19T07:08:33;12.35;;;7.50;;
53062;SDS011;40529;52.172;10.548;2022-08-19T07:11:01;13.20;;;6.95;;
53062;SDS011;40529;52.172;10.548;2022-08-19T07:13:27;9.68;;;6.57;;
53062;SDS011;40529;52.172;10.548;2022-08-19T07:15:53;9.02;;;6.22;;
53062;SDS011;40529;52.172;10.548;2022-08-19T07:18:19;11.27;;;6.47;;
53062;SDS011;40529;52.172;10.548;2022-08-19T07:20:46;10.10;;;6.32;;
53062;SDS011;40529;52.172;10.548;2022-08-19T07:23:13;6.38;;;5.53;;
53062;SDS011;40529;52.172;10.548;2022-08-19T07:25:39;10.43;;;6.40;;
53062;SDS011;40529;52.172;10.548;2022-08-19T07:28:05;8.45;;;6.35;;
53062;SDS011;40529;52.172;10.548;2022-08-19T07:30:36;9.65;;;6.00;;
53062;SDS011;40529;52.172;10.548;2022-08-19T07:33:02;11.23;;;6.10;;
53062;SDS011;40529;52.172;10.548;2022-08-19T07:35:28;6.68;;;5.55;;
53062;SDS011;40529;52.172;10.548;2022-08-19T07:37:56;8.57;;;5.53;;
53062;SDS011;40529;52.172;10.548;2022-08-19T07:40:23;7.97;;;5.55;;
53062;SDS011;40529;52.172;10.548;2022-08-19T07:42:49;7.32;;;5.10;;
53062;SDS011;40529;52.172;10.548;2022-08-19T07:45:15;6.10;;;4.65;;
53062;SDS011;40529;52.172;10.548;2022-08-19T07:47:41;7.97;;;5.05;;
53062;SDS011;40529;52.172;10.548;2022-08-19T07:50:09;9.38;;;4.95;;
53062;SDS011;40529;52.172;10.548;2022-08-19T07:52:36;7.45;;;4.50;;
53062;SDS011;40529;52.172;10.548;2022-08-19T07:55:05;7.13;;;4.80;;
53062;SDS011;40529;52.172;10.548;2022-08-19T07:57:31;7.50;;;4.88;;
53062;SDS011;40529;52.172;10.548;2022-08-19T07:59:57;5.90;;;4.85;;
53062;SDS011;40529;52.172;10.548;2022-08-19T08:02:23;8.05;;;5.05;;
53062;SDS011;40529;52.172;10.548;2022-08-19T08:04:49;6.15;;;4.55;;
53062;SDS011;40529;52.172;10.548;2022-08-19T08:07:34;8.30;;;5.32;;
53062;SDS011;40529;52.172;10.548;2022-08-19T08:10:18;7.32;;;4.88;;
53062;SDS011;40529;52.172;10.548;2022-08-19T08:12:44;7.22;;;4.70;;
53062;SDS011;40529;52.172;10.548;2022-08-19T08:15:12;8.02;;;5.20;;
53062;SDS011;40529;52.172;10.548;2022-08-19T08:17:41;6.78;;;4.97;;
53062;SDS011;40529;52.172;10.548;2022-08-19T08:20:07;8.00;;;5.20;;
53062;SDS011;40529;52.172;10.548;2022-08-19T08:22:34;6.25;;;5.05;;
53062;SDS011;40529;52.172;10.548;2022-08-19T08:25:20;8.27;;;5.03;;
53062;SDS011;40529;52.172;10.548;2022-08-19T08:27:47;6.83;;;4.60;;
53062;SDS011;40529;52.172;10.548;2022-08-19T08:30:19;7.05;;;5.13;;
53062;SDS011;40529;52.172;10.548;2022-08-19T08:32:45;8.23;;;4.90;;
53062;SDS011;40529;52.172;10.548;2022-08-19T08:35:13;11.70;;;4.60;;
53062;SDS011;40529;52.172;10.548;2022-08-19T08:37:39;7.18;;;4.63;;
53062;SDS011;40529;52.172;10.548;2022-08-19T08:40:07;5.60;;;4.72;;
53062;SDS011;40529;52.172;10.548;2022-08-19T08:42:36;6.47;;;4.35;;
53062;SDS011;40529;52.172;10.548;2022-08-19T08:45:06;6.20;;;3.95;;
53062;SDS011;40529;52.172;10.548;2022-08-19T08:47:38;5.20;;;4.13;;
53062;SDS011;40529;52.172;10.548;2022-08-19T08:50:08;7.03;;;4.32;;
53062;SDS011;40529;52.172;10.548;2022-08-19T08:52:37;5.47;;;3.85;;
53062;SDS011;40529;52.172;10.548;2022-08-19T08:55:08;5.15;;;4.13;;
53062;SDS011;40529;52.172;10.548;2022-08-19T09:00:04;8.10;;;3.90;;
53062;SDS011;40529;52.172;10.548;2022-08-19T09:02:31;8.20;;;3.88;;
53062;SDS011;40529;52.172;10.548;2022-08-19T09:04:57;8.02;;;3.78;;
53062;SDS011;40529;52.172;10.548;2022-08-19T09:09:54;5.75;;;4.03;;
53062;SDS011;40529;52.172;10.548;2022-08-19T09:12:28;6.75;;;3.60;;
53062;SDS011;40529;52.172;10.548;2022-08-19T09:15:09;7.88;;;4.15;;
53062;SDS011;40529;52.172;10.548;2022-08-19T09:17:36;5.32;;;3.92;;
53062;SDS011;40529;52.172;10.548;2022-08-19T09:22:34;4.88;;;3.63;;
53062;SDS011;40529;52.172;10.548;2022-08-19T09:25:00;5.32;;;3.72;;
53062;SDS011;40529;52.172;10.548;2022-08-19T09:27:29;4.47;;;3.70;;
53062;SDS011;40529;52.172;10.548;2022-08-19T09:29:55;4.28;;;3.85;;
53062;SDS011;40529;52.172;10.548;2022-08-19T09:32:21;7.13;;;3.97;;
53062;SDS011;40529;52.172;10.548;2022-08-19T09:34:48;7.13;;;4.25;;
53062;SDS011;40529;52.172;10.548;2022-08-19T09:37:15;8.60;;;4.65;;
53062;SDS011;40529;52.172;10.548;2022-08-19T09:39:41;8.25;;;3.90;;
53062;SDS011;40529;52.172;10.548;2022-08-19T09:42:07;6.22;;;4.40;;
53062;SDS011;40529;52.172;10.548;2022-08-19T09:44:39;6.15;;;5.05;;
53062;SDS011;40529;52.172;10.548;2022-08-19T09:47:05;9.75;;;5.90;;
53062;SDS011;40529;52.172;10.548;2022-08-19T09:49:32;6.30;;;4.97;;
53062;SDS011;40529;52.172;10.548;2022-08-19T09:51:58;6.15;;;5.30;;
53062;SDS011;40529;52.172;10.548;2022-08-19T09:54:24;8.65;;;5.95;;
53062;SDS011;40529;52.172;10.548;2022-08-19T09:56:54;9.70;;;6.35;;
53062;SDS011;40529;52.172;10.548;2022-08-19T09:59:20;9.63;;;6.55;;
53062;SDS011;40529;52.172;10.548;2022-08-19T10:01:46;9.93;;;7.30;;
53062;SDS011;40529;52.172;10.548;2022-08-19T10:04:12;8.15;;;6.30;;
53062;SDS011;40529;52.172;10.548;2022-08-19T10:06:39;7.53;;;6.70;;
53062;SDS011;40529;52.172;10.548;2022-08-19T10:09:07;9.57;;;6.30;;
53062;SDS011;40529;52.172;10.548;2022-08-19T10:11:33;9.40;;;8.40;;
53062;SDS011;40529;52.172;10.548;2022-08-19T10:14:02;9.02;;;7.75;;
53062;SDS011;40529;52.172;10.548;2022-08-19T10:16:30;11.90;;;9.10;;
53062;SDS011;40529;52.172;10.548;2022-08-19T10:18:57;11.93;;;9.57;;
53062;SDS011;40529;52.172;10.548;2022-08-19T10:21:27;12.93;;;10.30;;
53062;SDS011;40529;52.172;10.548;2022-08-19T10:23:54;12.15;;;9.40;;
53062;SDS011;40529;52.172;10.548;2022-08-19T10:26:23;11.65;;;9.27;;
53062;SDS011;40529;52.172;10.548;2022-08-19T10:28:50;11.23;;;9.50;;
53062;SDS011;40529;52.172;10.548;2022-08-19T10:31:37;9.60;;;8.70;;
53062;SDS011;40529;52.172;10.548;2022-08-19T10:34:02;9.32;;;8.18;;
53062;SDS011;40529;52.172;10.548;2022-08-19T10:36:30;8.80;;;7.90;;
53062;SDS011;40529;52.172;10.548;2022-08-19T10:38:58;14.23;;;8.35;;
53062;SDS011;40529;52.172;10.548;2022-08-19T10:41:27;11.40;;;7.80;;
53062;SDS011;40529;52.172;10.548;2022-08-19T10:43:54;8.23;;;6.30;;
53062;SDS011;40529;52.172;10.548;2022-08-19T10:46:22;6.32;;;5.13;;
53062;SDS011;40529;52.172;10.548;2022-08-19T10:48:49;5.97;;;4.30;;
53062;SDS011;40529;52.172;10.548;2022-08-19T10:51:15;5.88;;;4.47;;
53062;SDS011;40529;52.172;10.548;2022-08-19T10:54:00;5.78;;;4.35;;
53062;SDS011;40529;52.172;10.548;2022-08-19T10:56:27;6.90;;;4.43;;
53062;SDS011;40529;52.172;10.548;2022-08-19T10:59:12;5.90;;;4.40;;
53062;SDS011;40529;52.172;10.548;2022-08-19T11:01:39;7.82;;;4.90;;
53062;SDS011;40529;52.172;10.548;2022-08-19T11:04:06;6.10;;;4.70;;
53062;SDS011;40529;52.172;10.548;2022-08-19T11:06:36;7.15;;;5.82;;
53062;SDS011;40529;52.172;10.548;2022-08-19T11:09:03;7.18;;;5.50;;
53062;SDS011;40529;52.172;10.548;2022-08-19T11:11:30;7.60;;;5.70;;
53062;SDS011;40529;52.172;10.548;2022-08-19T11:13:57;9.77;;;6.15;;
53062;SDS011;40529;52.172;10.548;2022-08-19T11:16:23;7.40;;;6.18;;
53062;SDS011;40529;52.172;10.548;2022-08-19T11:18:52;6.70;;;5.55;;
53062;SDS011;40529;52.172;10.548;2022-08-19T11:21:20;6.50;;;5.30;;
53062;SDS011;40529;52.172;10.548;2022-08-19T11:23:47;5.85;;;4.68;;
53062;SDS011;40529;52.172;10.548;2022-08-19T11:26:14;4.68;;;4.07;;
53062;SDS011;40529;52.172;10.548;2022-08-19T11:28:40;7.18;;;3.65;;
53062;SDS011;40529;52.172;10.548;2022-08-19T11:31:17;7.63;;;4.05;;
53062;SDS011;40529;52.172;10.548;2022-08-19T11:33:44;5.50;;;3.95;;
53062;SDS011;40529;52.172;10.548;2022-08-19T11:36:11;7.50;;;4.70;;
53062;SDS011;40529;52.172;10.548;2022-08-19T11:38:37;5.50;;;3.88;;
53062;SDS011;40529;52.172;10.548;2022-08-19T11:41:06;5.60;;;3.97;;
53062;SDS011;40529;52.172;10.548;2022-08-19T11:43:33;4.55;;;3.97;;
53062;SDS011;40529;52.172;10.548;2022-08-19T11:45:59;5.32;;;3.40;;
53062;SDS011;40529;52.172;10.548;2022-08-19T11:48:29;7.00;;;3.35;;
53062;SDS011;40529;52.172;10.548;2022-08-19T11:50:55;5.78;;;3.83;;
53062;SDS011;40529;52.172;10.548;2022-08-19T11:53:21;5.93;;;3.95;;
53062;SDS011;40529;52.172;10.548;2022-08-19T11:55:47;4.20;;;3.80;;
53062;SDS011;40529;52.172;10.548;2022-08-19T11:58:14;5.57;;;3.40;;
53062;SDS011;40529;52.172;10.548;2022-08-19T12:00:40;5.60;;;3.80;;
53062;SDS011;40529;52.172;10.548;2022-08-19T12:03:07;4.60;;;3.67;;
53062;SDS011;40529;52.172;10.548;2022-08-19T12:05:33;5.30;;;3.08;;
53062;SDS011;40529;52.172;10.548;2022-08-19T12:07:59;4.55;;;3.50;;
53062;SDS011;40529;52.172;10.548;2022-08-19T12:10:25;4.05;;;3.63;;
53062;SDS011;40529;52.172;10.548;2022-08-19T12:12:51;5.80;;;3.38;;
53062;SDS011;40529;52.172;10.548;2022-08-19T12:15:17;4.20;;;3.72;;
53062;SDS011;40529;52.172;10.548;2022-08-19T12:17:43;3.60;;;3.25;;
53062;SDS011;40529;52.172;10.548;2022-08-19T12:20:10;3.22;;;2.92;;
53062;SDS011;40529;52.172;10.548;2022-08-19T12:22:38;4.93;;;3.50;;
53062;SDS011;40529;52.172;10.548;2022-08-19T12:25:06;3.60;;;3.03;;
53062;SDS011;40529;52.172;10.548;2022-08-19T12:27:32;5.70;;;3.65;;
53062;SDS011;40529;52.172;10.548;2022-08-19T12:29:58;5.40;;;3.30;;
53062;SDS011;40529;52.172;10.548;2022-08-19T12:32:26;7.00;;;3.40;;
53062;SDS011;40529;52.172;10.548;2022-08-19T12:34:52;3.30;;;2.70;;
53062;SDS011;40529;52.172;10.548;2022-08-19T12:37:19;6.25;;;3.58;;
53062;SDS011;40529;52.172;10.548;2022-08-19T12:39:45;5.55;;;3.45;;
53062;SDS011;40529;52.172;10.548;2022-08-19T12:42:12;3.28;;;2.95;;
53062;SDS011;40529;52.172;10.548;2022-08-19T12:44:39;4.07;;;3.25;;
53062;SDS011;40529;52.172;10.548;2022-08-19T12:47:06;3.40;;;3.00;;
53062;SDS011;40529;52.172;10.548;2022-08-19T12:49:32;4.82;;;3.47;;
53062;SDS011;40529;52.172;10.548;2022-08-19T12:52:02;3.83;;;3.42;;
53062;SDS011;40529;52.172;10.548;2022-08-19T12:54:28;5.15;;;3.30;;
53062;SDS011;40529;52.172;10.548;2022-08-19T12:56:55;3.60;;;3.30;;
53062;SDS011;40529;52.172;10.548;2022-08-19T12:59:21;3.13;;;2.92;;
53062;SDS011;40529;52.172;10.548;2022-08-19T13:01:48;4.13;;;2.80;;
53062;SDS011;40529;52.172;10.548;2022-08-19T13:04:14;3.70;;;3.30;;
53062;SDS011;40529;52.172;10.548;2022-08-19T13:06:41;3.25;;;2.90;;
53062;SDS011;40529;52.172;10.548;2022-08-19T13:09:07;3.42;;;3.13;;
53062;SDS011;40529;52.172;10.548;2022-08-19T13:11:34;4.80;;;3.40;;
53062;SDS011;40529;52.172;10.548;2022-08-19T13:14:01;3.75;;;3.40;;
53062;SDS011;40529;52.172;10.548;2022-08-19T13:16:28;3.95;;;3.55;;
53062;SDS011;40529;52.172;10.548;2022-08-19T13:18:55;3.80;;;3.47;;
53062;SDS011;40529;52.172;10.548;2022-08-19T13:21:22;3.78;;;3.30;;
53062;SDS011;40529;52.172;10.548;2022-08-19T13:23:48;4.95;;;3.50;;
53062;SDS011;40529;52.172;10.548;2022-08-19T13:26:15;3.70;;;3.28;;
53062;SDS011;40529;52.172;10.548;2022-08-19T13:28:41;3.70;;;3.40;;
53062;SDS011;40529;52.172;10.548;2022-08-19T13:31:28;3.88;;;3.40;;
53062;SDS011;40529;52.172;10.548;2022-08-19T13:34:13;4.97;;;3.20;;
53062;SDS011;40529;52.172;10.548;2022-08-19T13:36:40;5.15;;;3.25;;
53062;SDS011;40529;52.172;10.548;2022-08-19T13:39:06;4.38;;;3.50;;
53062;SDS011;40529;52.172;10.548;2022-08-19T13:41:33;5.50;;;3.10;;
53062;SDS011;40529;52.172;10.548;2022-08-19T13:44:00;6.03;;;3.58;;
53062;SDS011;40529;52.172;10.548;2022-08-19T13:46:27;3.45;;;3.15;;
53062;SDS011;40529;52.172;10.548;2022-08-19T13:48:54;4.97;;;3.72;;
53062;SDS011;40529;52.172;10.548;2022-08-19T13:51:21;5.55;;;3.30;;
53062;SDS011;40529;52.172;10.548;2022-08-19T13:53:47;5.43;;;3.92;;
53062;SDS011;40529;52.172;10.548;2022-08-19T13:56:14;4.90;;;3.70;;
53062;SDS011;40529;52.172;10.548;2022-08-19T13:58:41;3.75;;;3.45;;
53062;SDS011;40529;52.172;10.548;2022-08-19T14:01:08;4.40;;;4.00;;
53062;SDS011;40529;52.172;10.548;2022-08-19T14:03:34;4.60;;;3.85;;
53062;SDS011;40529;52.172;10.548;2022-08-19T14:06:00;4.45;;;3.35;;
53062;SDS011;40529;52.172;10.548;2022-08-19T14:08:26;5.15;;;3.83;;
53062;SDS011;40529;52.172;10.548;2022-08-19T14:10:53;4.20;;;3.30;;
53062;SDS011;40529;52.172;10.548;2022-08-19T14:13:20;4.00;;;3.60;;
53062;SDS011;40529;52.172;10.548;2022-08-19T14:15:46;4.15;;;3.75;;
53062;SDS011;40529;52.172;10.548;2022-08-19T14:18:13;4.18;;;3.70;;
53062;SDS011;40529;52.172;10.548;2022-08-19T14:20:40;4.63;;;3.65;;
53062;SDS011;40529;52.172;10.548;2022-08-19T14:23:06;4.15;;;3.20;;
53062;SDS011;40529;52.172;10.548;2022-08-19T14:25:32;4.90;;;3.33;;
53062;SDS011;40529;52.172;10.548;2022-08-19T14:27:58;3.58;;;3.28;;
53062;SDS011;40529;52.172;10.548;2022-08-19T14:30:26;7.30;;;3.88;;
53062;SDS011;40529;52.172;10.548;2022-08-19T14:32:52;3.50;;;3.20;;
53062;SDS011;40529;52.172;10.548;2022-08-19T14:35:19;5.20;;;3.55;;
53062;SDS011;40529;52.172;10.548;2022-08-19T14:37:47;4.82;;;3.42;;
53062;SDS011;40529;52.172;10.548;2022-08-19T14:40:15;7.75;;;3.83;;